createdAt,value
2023-04-24T00:01:10.227Z,7.90
2023-04-24T00:03:40.132Z,7.80
2023-04-24T00:06:09.151Z,7.80
2023-04-24T00:08:36.949Z,7.70
2023-04-24T00:11:04.290Z,7.60
2023-04-24T00:13:31.422Z,7.50
2023-04-24T00:15:58.370Z,7.40
2023-04-24T00:18:25.296Z,7.40
2023-04-24T00:20:52.256Z,7.40
2023-04-24T00:23:19.240Z,7.30
2023-04-24T00:25:46.312Z,7.30
2023-04-24T00:28:13.260Z,7.30
2023-04-24T00:30:41.392Z,7.30
2023-04-24T00:33:08.491Z,7.20
2023-04-24T00:35:35.665Z,7.20
2023-04-24T00:38:02.595Z,7.20
2023-04-24T00:40:29.565Z,7.10
2023-04-24T00:42:57.492Z,7.10
2023-04-24T00:45:24.392Z,7.10
2023-04-24T00:47:53.260Z,7.10
2023-04-24T00:50:22.471Z,7.00
2023-04-24T00:52:49.767Z,7.00
2023-04-24T00:55:16.994Z,6.90
2023-04-24T00:57:44.909Z,6.90
2023-04-24T01:00:13.042Z,6.90
2023-04-24T01:02:48.009Z,6.80
2023-04-24T01:05:16.144Z,6.80
2023-04-24T01:07:46.513Z,6.80
2023-04-24T01:10:14.503Z,6.80
2023-04-24T01:12:41.560Z,6.80
2023-04-24T01:15:08.921Z,6.70
2023-04-24T01:17:36.169Z,6.70
2023-04-24T01:20:06.731Z,6.70
2023-04-24T01:22:34.750Z,6.70
2023-04-24T01:25:01.762Z,6.60
2023-04-24T01:27:30.753Z,6.70
2023-04-24T01:29:57.757Z,6.70
2023-04-24T01:32:25.130Z,6.60
2023-04-24T01:34:52.289Z,6.60
2023-04-24T01:37:19.249Z,6.60
2023-04-24T01:39:46.262Z,6.60
2023-04-24T01:42:13.682Z,6.50
2023-04-24T01:44:41.032Z,6.50
2023-04-24T01:47:08.079Z,6.50
2023-04-24T01:49:35.369Z,6.50
2023-04-24T01:52:02.383Z,6.50
2023-04-24T01:54:31.429Z,6.40
2023-04-24T01:56:58.381Z,6.40
2023-04-24T01:59:26.331Z,6.30
2023-04-24T02:01:53.313Z,6.30
2023-04-24T02:04:20.534Z,6.30
2023-04-24T02:06:48.197Z,6.30
2023-04-24T02:09:15.090Z,6.20
2023-04-24T02:11:41.971Z,6.30
2023-04-24T02:14:08.922Z,6.20
2023-04-24T02:16:37.132Z,6.20
2023-04-24T02:19:04.678Z,6.20
2023-04-24T02:21:32.178Z,6.20
2023-04-24T02:23:59.199Z,6.20
2023-04-24T02:26:26.443Z,6.10
2023-04-24T02:28:53.374Z,6.10
2023-04-24T02:31:21.389Z,6.10
2023-04-24T02:33:48.675Z,6.10
2023-04-24T02:36:15.655Z,6.10
2023-04-24T02:38:42.774Z,6.00
2023-04-24T02:44:47.301Z,6.00
2023-04-24T02:47:37.417Z,6.00
2023-04-24T02:50:04.703Z,6.00
2023-04-24T02:52:31.673Z,6.00
2023-04-24T02:54:58.570Z,6.00
2023-04-24T02:57:25.756Z,6.00
2023-04-24T02:59:52.849Z,6.00
2023-04-24T03:02:20.008Z,6.00
2023-04-24T03:04:48.864Z,6.00
2023-04-24T03:07:16.356Z,6.00
2023-04-24T03:09:44.120Z,6.00
2023-04-24T03:12:11.418Z,6.00
2023-04-24T03:14:39.995Z,6.00
2023-04-24T03:17:06.955Z,6.00
2023-04-24T03:19:33.910Z,6.00
2023-04-24T03:22:06.124Z,6.00
2023-04-24T03:24:34.263Z,6.00
2023-04-24T03:27:01.310Z,6.00
2023-04-24T03:30:01.900Z,6.00
2023-04-24T03:32:45.463Z,6.00
2023-04-24T03:35:15.841Z,6.00
2023-04-24T03:37:43.164Z,6.00
2023-04-24T03:40:36.870Z,6.00
2023-04-24T03:43:08.923Z,6.00
2023-04-24T03:45:36.933Z,6.00
2023-04-24T03:48:04.129Z,6.00
2023-04-24T03:50:31.207Z,6.00
2023-04-24T03:52:58.989Z,6.00
2023-04-24T03:55:35.633Z,6.00
2023-04-24T03:58:02.962Z,6.00
2023-04-24T04:00:34.361Z,6.00
2023-04-24T04:03:40.370Z,5.90
2023-04-24T04:06:08.066Z,6.00
2023-04-24T04:08:35.640Z,5.90
2023-04-24T04:11:05.242Z,5.90
2023-04-24T04:13:32.870Z,5.90
2023-04-24T04:16:00.411Z,5.90
2023-04-24T04:18:27.531Z,5.80
2023-04-24T04:20:54.619Z,5.80
2023-04-24T04:23:21.647Z,5.80
2023-04-24T04:26:04.476Z,5.80
2023-04-24T04:28:45.944Z,5.80
2023-04-24T04:31:14.003Z,5.70
2023-04-24T04:33:41.191Z,5.70
2023-04-24T04:36:09.803Z,5.70
2023-04-24T04:38:42.933Z,5.70
2023-04-24T04:41:29.863Z,5.70
2023-04-24T04:43:59.638Z,5.70
2023-04-24T04:46:27.316Z,5.70
2023-04-24T04:49:09.436Z,5.70
2023-04-24T04:51:36.698Z,5.70
2023-04-24T04:54:03.753Z,5.60
2023-04-24T04:56:31.083Z,5.70
2023-04-24T04:59:00.992Z,5.70
2023-04-24T05:01:28.763Z,5.70
2023-04-24T05:03:56.711Z,5.70
2023-04-24T05:06:31.460Z,5.70
2023-04-24T05:12:13.273Z,5.70
2023-04-24T05:14:48.132Z,5.70
2023-04-24T05:17:15.330Z,5.80
2023-04-24T05:19:42.826Z,5.80
2023-04-24T05:22:10.830Z,5.80
2023-04-24T05:24:46.292Z,5.80
2023-04-24T05:27:31.806Z,5.90
2023-04-24T05:29:59.750Z,5.90
2023-04-24T05:32:28.230Z,5.90
2023-04-24T05:35:00.658Z,5.90
2023-04-24T05:37:28.118Z,5.90
2023-04-24T05:39:56.174Z,6.00
2023-04-24T05:42:26.192Z,6.00
2023-04-24T05:44:57.365Z,6.00
2023-04-24T05:47:25.024Z,6.00
2023-04-24T05:49:53.710Z,6.10
2023-04-24T05:52:21.273Z,6.10
2023-04-24T05:54:49.692Z,6.20
2023-04-24T05:57:21.684Z,6.20
2023-04-24T05:59:53.430Z,6.20
2023-04-24T06:02:22.208Z,6.20
2023-04-24T06:04:49.483Z,6.30
2023-04-24T06:07:18.474Z,6.30
2023-04-24T06:09:45.899Z,6.40
2023-04-24T06:12:13.012Z,6.40
2023-04-24T06:14:59.389Z,6.50
2023-04-24T06:17:48.987Z,6.50
2023-04-24T06:20:17.379Z,6.40
2023-04-24T06:22:44.307Z,6.50
2023-04-24T06:25:11.655Z,6.50
2023-04-24T06:27:40.718Z,6.50
2023-04-24T06:30:09.197Z,6.60
2023-04-24T06:32:36.403Z,6.60
2023-04-24T06:35:03.480Z,6.60
2023-04-24T06:37:30.640Z,6.60
2023-04-24T06:39:57.610Z,6.60
2023-04-24T06:42:25.833Z,6.60
2023-04-24T06:44:52.863Z,6.60
2023-04-24T06:47:20.053Z,6.60
2023-04-24T06:49:47.130Z,6.60
2023-04-24T06:52:14.391Z,6.60
2023-04-24T06:54:45.030Z,6.60
2023-04-24T06:57:12.048Z,6.60
2023-04-24T06:59:39.195Z,6.60
2023-04-24T07:02:06.397Z,6.60
2023-04-24T07:04:34.065Z,6.70
2023-04-24T07:07:01.053Z,6.70
2023-04-24T07:09:28.077Z,6.70
2023-04-24T07:11:55.215Z,6.70
2023-04-24T07:14:22.219Z,6.80
2023-04-24T07:16:49.514Z,6.80
2023-04-24T07:19:16.530Z,6.80
2023-04-24T07:21:43.616Z,6.80
2023-04-24T07:24:11.962Z,6.80
2023-04-24T07:26:40.216Z,6.80
2023-04-24T07:29:07.608Z,6.90
2023-04-24T07:31:35.094Z,6.90
2023-04-24T07:34:02.123Z,6.90
2023-04-24T07:36:29.171Z,6.90
2023-04-24T07:38:57.496Z,7.00
2023-04-24T07:41:25.469Z,7.00
2023-04-24T07:43:53.672Z,7.00
2023-04-24T07:46:21.157Z,7.00
2023-04-24T07:48:58.630Z,7.00
2023-04-24T07:51:34.636Z,7.10
2023-04-24T07:54:02.199Z,7.10
2023-04-24T07:56:32.403Z,7.20
2023-04-24T07:58:59.766Z,7.20
2023-04-24T08:01:26.760Z,7.30
2023-04-24T08:03:54.001Z,7.30
2023-04-24T08:06:21.270Z,7.30
2023-04-24T08:08:48.367Z,7.40
2023-04-24T08:11:15.369Z,7.40
2023-04-24T08:13:42.448Z,7.50
2023-04-24T08:16:09.486Z,7.50
2023-04-24T08:18:37.100Z,7.50
2023-04-24T08:21:04.424Z,7.60
2023-04-24T08:23:31.349Z,7.70
2023-04-24T08:25:58.869Z,7.70
2023-04-24T08:28:27.030Z,7.80
2023-04-24T08:30:55.918Z,7.80
2023-04-24T08:33:23.846Z,7.90
2023-04-24T08:35:51.228Z,8.00
2023-04-24T08:38:18.294Z,8.10
2023-04-24T08:40:47.196Z,8.20
2023-04-24T08:43:15.937Z,8.30
2023-04-24T08:45:42.978Z,8.40
2023-04-24T08:48:19.756Z,8.40
2023-04-24T08:50:54.218Z,8.50
2023-04-24T08:53:21.686Z,8.50
2023-04-24T08:55:49.343Z,8.50
2023-04-24T08:58:17.707Z,8.50
2023-04-24T09:00:48.080Z,8.50
2023-04-24T09:03:16.928Z,8.50
2023-04-24T09:05:47.026Z,8.40
2023-04-24T09:08:14.884Z,8.50
2023-04-24T09:10:42.098Z,8.50
2023-04-24T09:13:11.176Z,8.60
2023-04-24T09:15:38.777Z,8.70
2023-04-24T09:18:06.558Z,8.80
2023-04-24T09:20:34.132Z,8.90
2023-04-24T09:23:01.094Z,8.90
2023-04-24T09:25:35.048Z,8.90
2023-04-24T09:28:03.792Z,8.90
2023-04-24T09:30:31.040Z,8.90
2023-04-24T09:33:13.308Z,8.80
2023-04-24T09:35:44.381Z,8.80
2023-04-24T09:38:11.922Z,8.90
2023-04-24T09:40:41.091Z,8.80
2023-04-24T09:43:11.698Z,8.90
2023-04-24T09:45:39.632Z,8.90
2023-04-24T09:48:07.531Z,9.00
2023-04-24T09:50:35.538Z,9.10
2023-04-24T09:53:03.320Z,9.20
2023-04-24T09:55:30.690Z,9.30
2023-04-24T09:58:01.961Z,9.40
2023-04-24T10:00:30.209Z,9.60
2023-04-24T10:03:01.152Z,10.00
2023-04-24T10:05:32.457Z,10.50
2023-04-24T10:08:01.313Z,11.20
2023-04-24T10:10:28.810Z,11.60
2023-04-24T10:12:56.185Z,12.10
2023-04-24T10:15:23.566Z,12.40
2023-04-24T10:17:54.360Z,12.60
2023-04-24T10:20:25.828Z,12.70
2023-04-24T10:22:54.115Z,12.80
2023-04-24T10:25:22.196Z,12.80
2023-04-24T10:27:49.853Z,12.70
2023-04-24T10:30:17.570Z,12.80
2023-04-24T10:32:44.737Z,12.90
2023-04-24T10:35:14.793Z,13.10
2023-04-24T10:37:43.221Z,13.20
2023-04-24T10:40:11.220Z,13.40
2023-04-24T10:42:43.783Z,13.60
2023-04-24T10:45:18.177Z,13.90
2023-04-24T10:47:51.893Z,14.20
2023-04-24T10:50:19.038Z,14.60
2023-04-24T10:52:47.171Z,14.90
2023-04-24T10:55:15.443Z,15.10
2023-04-24T10:58:02.073Z,15.10
2023-04-24T11:00:29.184Z,15.10
2023-04-24T11:02:56.599Z,14.80
2023-04-24T11:05:24.159Z,14.60
2023-04-24T11:08:10.137Z,14.50
2023-04-24T11:10:39.922Z,14.40
2023-04-24T11:13:07.500Z,14.40
2023-04-24T11:15:34.486Z,14.30
2023-04-24T11:18:01.494Z,14.20
2023-04-24T11:20:28.777Z,14.10
2023-04-24T11:23:04.321Z,13.90
2023-04-24T11:25:31.788Z,13.70
2023-04-24T11:28:05.526Z,13.40
2023-04-24T11:30:37.413Z,13.20
2023-04-24T11:33:05.449Z,13.00
2023-04-24T11:35:38.362Z,12.80
2023-04-24T11:40:38.013Z,12.50
2023-04-24T11:43:07.671Z,12.30
2023-04-24T11:45:35.343Z,12.20
2023-04-24T11:48:04.474Z,12.10
2023-04-24T11:50:31.690Z,12.10
2023-04-24T11:52:58.814Z,11.90
2023-04-24T11:55:28.050Z,11.80
2023-04-24T11:57:57.697Z,11.70
2023-04-24T12:00:24.880Z,11.60
2023-04-24T12:02:52.672Z,11.50
2023-04-24T12:05:24.408Z,11.40
2023-04-24T12:07:51.614Z,11.40
2023-04-24T12:10:25.622Z,11.30
2023-04-24T12:12:53.126Z,11.20
2023-04-24T12:15:20.988Z,11.20
2023-04-24T12:17:48.284Z,11.10
2023-04-24T12:20:15.522Z,11.10
2023-04-24T12:22:48.993Z,11.10
2023-04-24T12:25:17.012Z,11.00
2023-04-24T12:27:44.474Z,11.00
2023-04-24T12:30:12.594Z,11.00
2023-04-24T12:33:02.976Z,11.10
2023-04-24T12:35:32.761Z,11.20
2023-04-24T12:38:09.425Z,11.40
2023-04-24T12:40:36.893Z,11.40
2023-04-24T12:43:13.831Z,11.40
2023-04-24T12:45:41.015Z,11.40
2023-04-24T12:48:08.012Z,11.30
2023-04-24T12:50:34.993Z,11.20
2023-04-24T12:53:02.003Z,11.20
2023-04-24T12:55:28.874Z,11.10
2023-04-24T12:57:57.103Z,11.10
2023-04-24T13:00:24.137Z,11.00
2023-04-24T13:02:51.184Z,11.00
2023-04-24T13:05:18.218Z,11.00
2023-04-24T13:07:47.584Z,11.00
2023-04-24T13:10:14.728Z,10.90
2023-04-24T13:12:41.751Z,11.00
2023-04-24T13:15:08.829Z,11.10
2023-04-24T13:17:35.762Z,11.20
2023-04-24T13:20:03.786Z,11.20
2023-04-24T13:22:30.794Z,11.30
2023-04-24T13:27:25.305Z,11.30
2023-04-24T13:29:52.527Z,11.20
2023-04-24T13:32:19.675Z,11.20
2023-04-24T13:34:46.912Z,11.20
2023-04-24T13:37:14.032Z,11.20
2023-04-24T13:39:42.474Z,11.10
2023-04-24T13:42:09.797Z,11.00
2023-04-24T13:44:36.777Z,10.90
2023-04-24T13:47:03.944Z,10.80
2023-04-24T13:49:31.106Z,10.80
2023-04-24T13:51:58.422Z,10.80
2023-04-24T13:54:26.973Z,10.70
2023-04-24T13:56:54.507Z,10.70
2023-04-24T13:59:22.598Z,10.60
2023-04-24T14:01:49.750Z,10.50
2023-04-24T14:04:28.097Z,10.50
2023-04-24T14:06:55.100Z,10.40
2023-04-24T14:09:21.953Z,10.30
2023-04-24T14:11:48.946Z,10.30
2023-04-24T14:14:16.089Z,10.20
2023-04-24T14:16:43.093Z,10.10
2023-04-24T14:19:09.999Z,10.00
2023-04-24T14:21:36.908Z,9.80
2023-04-24T14:24:03.863Z,9.70
2023-04-24T14:26:31.330Z,9.70
2023-04-24T14:29:11.607Z,9.60
2023-04-24T14:31:41.774Z,9.60
2023-04-24T14:34:08.787Z,9.60
2023-04-24T14:36:36.217Z,9.60
2023-04-24T14:39:07.354Z,9.60
2023-04-24T14:41:37.028Z,9.60
2023-04-24T14:44:05.355Z,9.60
2023-04-24T14:46:32.608Z,9.60
2023-04-24T14:48:59.674Z,9.60
2023-04-24T14:51:26.642Z,9.50
2023-04-24T14:53:54.367Z,9.60
2023-04-24T14:56:21.290Z,9.50
2023-04-24T14:58:48.399Z,9.50
2023-04-24T15:01:16.812Z,9.50
2023-04-24T15:03:45.112Z,9.50
2023-04-24T15:06:12.765Z,9.40
2023-04-24T15:08:39.716Z,9.50
2023-04-24T15:11:06.677Z,9.50
2023-04-24T15:13:33.594Z,9.40
2023-04-24T15:16:00.923Z,9.40
2023-04-24T15:18:29.038Z,9.40
2023-04-24T15:20:56.514Z,9.40
2023-04-24T15:23:23.402Z,9.50
2023-04-24T15:25:50.511Z,9.50
2023-04-24T15:28:19.133Z,9.50
2023-04-24T15:30:46.231Z,9.50
2023-04-24T15:33:13.302Z,9.50
2023-04-24T15:35:41.502Z,9.60
2023-04-24T15:38:08.926Z,9.60
2023-04-24T15:40:35.938Z,9.60
2023-04-24T15:43:02.923Z,9.60
2023-04-24T15:45:31.264Z,9.60
2023-04-24T15:47:58.402Z,9.60
2023-04-24T15:50:25.445Z,9.50
2023-04-24T15:52:52.506Z,9.50
2023-04-24T15:55:19.602Z,9.50
2023-04-24T15:57:46.577Z,9.50
2023-04-24T16:00:14.026Z,9.40
2023-04-24T16:02:41.253Z,9.40
2023-04-24T16:05:08.921Z,9.40
2023-04-24T16:07:36.245Z,9.30
2023-04-24T16:10:03.283Z,9.30
2023-04-24T16:12:31.123Z,9.30
2023-04-24T16:14:58.175Z,9.20
2023-04-24T16:17:25.157Z,9.20
2023-04-24T16:19:52.151Z,9.10
2023-04-24T16:22:19.102Z,9.00
2023-04-24T16:24:48.068Z,8.90
2023-04-24T16:27:15.866Z,8.90
2023-04-24T16:29:42.883Z,8.90
2023-04-24T16:32:10.123Z,8.90
2023-04-24T16:34:37.322Z,8.90
2023-04-24T16:37:06.581Z,8.90
2023-04-24T16:39:33.619Z,8.90
2023-04-24T16:42:01.599Z,8.90
2023-04-24T16:44:28.668Z,8.90
2023-04-24T16:46:55.808Z,8.90
2023-04-24T16:49:23.966Z,8.90
2023-04-24T16:51:51.127Z,8.90
2023-04-24T16:54:17.982Z,8.90
2023-04-24T16:56:45.095Z,8.90
2023-04-24T16:59:12.449Z,9.00
2023-04-24T17:01:39.422Z,8.90
2023-04-24T17:04:06.629Z,9.00
2023-04-24T17:06:33.802Z,9.00
2023-04-24T17:09:00.839Z,9.00
2023-04-24T17:11:31.228Z,8.90
2023-04-24T17:14:00.053Z,8.90
2023-04-24T17:16:27.483Z,8.80
2023-04-24T17:18:54.673Z,8.80
2023-04-24T17:21:21.603Z,8.70
2023-04-24T17:23:48.736Z,8.70
2023-04-24T17:26:16.292Z,8.70
2023-04-24T17:28:43.285Z,8.70
2023-04-24T17:31:10.454Z,8.70
2023-04-24T17:33:37.332Z,8.70
2023-04-24T17:36:06.853Z,8.70
2023-04-24T17:38:36.511Z,8.70
2023-04-24T17:41:03.636Z,8.70
2023-04-24T17:43:30.546Z,8.60
2023-04-24T17:45:59.309Z,8.60
2023-04-24T17:48:27.074Z,8.50
2023-04-24T17:50:54.373Z,8.40
2023-04-24T17:53:22.899Z,8.30
2023-04-24T17:55:49.857Z,8.30
2023-04-24T17:58:19.048Z,8.30
2023-04-24T18:00:46.084Z,8.20
2023-04-24T18:03:13.184Z,8.20
2023-04-24T18:05:40.154Z,8.20
2023-04-24T18:08:07.625Z,8.20
2023-04-24T18:10:37.595Z,8.20
2023-04-24T18:13:05.066Z,8.20
2023-04-24T18:15:32.258Z,8.20
2023-04-24T18:17:59.422Z,8.10
2023-04-24T18:20:26.641Z,8.10
2023-04-24T18:22:53.874Z,8.00
2023-04-24T18:25:26.810Z,8.00
2023-04-24T18:27:54.748Z,7.90
2023-04-24T18:30:22.110Z,7.90
2023-04-24T18:32:53.458Z,7.90
2023-04-24T18:35:21.229Z,7.90
2023-04-24T18:37:48.247Z,7.90
2023-04-24T18:40:15.499Z,7.90
2023-04-24T18:42:42.965Z,7.80
2023-04-24T18:45:12.376Z,7.70
2023-04-24T18:47:41.137Z,7.80
2023-04-24T18:50:08.333Z,7.70
2023-04-24T18:52:35.383Z,7.70
2023-04-24T18:55:04.288Z,7.70
2023-04-24T18:57:31.357Z,7.60
2023-04-24T18:59:59.806Z,7.60
2023-04-24T19:02:27.083Z,7.60
2023-04-24T19:04:54.081Z,7.60
2023-04-24T19:07:21.492Z,7.60
2023-04-24T19:09:48.410Z,7.60
2023-04-24T19:12:15.428Z,7.60
2023-04-24T19:14:42.312Z,7.60
2023-04-24T19:17:10.588Z,7.50
2023-04-24T19:19:37.495Z,7.50
2023-04-24T19:22:04.401Z,7.50
2023-04-24T19:24:34.707Z,7.50
2023-04-24T19:27:02.334Z,7.50
2023-04-24T19:29:29.301Z,7.50
2023-04-24T19:31:57.937Z,7.40
2023-04-24T19:34:25.169Z,7.40
2023-04-24T19:36:52.283Z,7.40
2023-04-24T19:39:19.181Z,7.30
2023-04-24T19:41:46.082Z,7.30
2023-04-24T19:44:14.753Z,7.30
2023-04-24T19:46:41.730Z,7.30
2023-04-24T19:49:08.713Z,7.30
2023-04-24T19:51:36.058Z,7.30
2023-04-24T19:54:05.435Z,7.30
2023-04-24T19:56:32.835Z,7.20
2023-04-24T19:58:59.791Z,7.20
2023-04-24T20:01:27.755Z,7.20
2023-04-24T20:03:55.007Z,7.20
2023-04-24T20:06:23.044Z,7.20
2023-04-24T20:08:50.306Z,7.20
2023-04-24T20:11:20.507Z,7.10
2023-04-24T20:13:47.418Z,7.10
2023-04-24T20:16:14.470Z,7.10
2023-04-24T20:18:41.755Z,7.00
2023-04-24T20:21:09.211Z,7.00
2023-04-24T20:23:36.272Z,7.00
2023-04-24T20:26:04.961Z,6.90
2023-04-24T20:28:40.792Z,6.90
2023-04-24T20:31:07.811Z,6.80
2023-04-24T20:33:37.998Z,6.70
2023-04-24T20:36:04.911Z,6.70
2023-04-24T20:38:31.855Z,6.60
2023-04-24T20:41:00.220Z,6.60
2023-04-24T20:43:29.161Z,6.50
2023-04-24T20:45:58.204Z,6.50
2023-04-24T20:48:29.020Z,6.50
2023-04-24T20:50:56.648Z,6.40
2023-04-24T20:53:23.966Z,6.40
2023-04-24T20:55:50.940Z,6.30
2023-04-24T20:58:24.115Z,6.30
2023-04-24T21:00:51.363Z,6.30
2023-04-24T21:03:18.542Z,6.20
2023-04-24T21:05:45.697Z,6.20
2023-04-24T21:08:22.216Z,6.10
2023-04-24T21:10:49.213Z,6.10
2023-04-24T21:13:16.211Z,6.10
2023-04-24T21:15:43.329Z,6.00
2023-04-24T21:18:10.407Z,6.00
2023-04-24T21:20:37.384Z,6.00
2023-04-24T21:23:04.357Z,5.90
2023-04-24T21:25:31.478Z,5.90
2023-04-24T21:27:59.535Z,5.90
2023-04-24T21:30:27.041Z,5.80
2023-04-24T21:32:54.168Z,5.70
2023-04-24T21:35:21.180Z,5.70
2023-04-24T21:37:48.189Z,5.60
2023-04-24T21:40:16.124Z,5.60
2023-04-24T21:42:43.420Z,5.60
2023-04-24T21:45:10.804Z,5.60
2023-04-24T21:47:37.708Z,5.60
2023-04-24T21:50:05.493Z,5.60
2023-04-24T21:52:32.424Z,5.50
2023-04-24T21:54:59.439Z,5.50
2023-04-24T21:57:26.623Z,5.50
2023-04-24T21:59:53.643Z,5.50
2023-04-24T22:02:21.271Z,5.50
2023-04-24T22:04:49.280Z,5.40
2023-04-24T22:07:16.509Z,5.40
2023-04-24T22:09:43.391Z,5.40
2023-04-24T22:12:10.360Z,5.30
2023-04-24T22:14:37.347Z,5.30
2023-04-24T22:17:04.956Z,5.30
2023-04-24T22:19:31.992Z,5.30
2023-04-24T22:21:58.953Z,5.30
2023-04-24T22:24:26.014Z,5.20
2023-04-24T22:26:53.188Z,5.30
2023-04-24T22:29:20.074Z,5.20
2023-04-24T22:31:47.192Z,5.20
2023-04-24T22:34:14.169Z,5.20
2023-04-24T22:36:41.092Z,5.20
2023-04-24T22:39:08.092Z,5.20
2023-04-24T22:41:34.962Z,5.10
2023-04-24T22:44:02.231Z,5.10
2023-04-24T22:46:31.196Z,5.10
2023-04-24T22:48:58.567Z,5.10
2023-04-24T22:51:26.110Z,5.10
2023-04-24T22:53:53.051Z,5.10
2023-04-24T22:56:20.031Z,5.10
2023-04-24T22:58:47.315Z,5.10
2023-04-24T23:01:14.242Z,5.10
2023-04-24T23:03:41.451Z,5.10
2023-04-24T23:06:08.641Z,5.10
2023-04-24T23:08:35.546Z,5.10
2023-04-24T23:11:02.718Z,5.10
2023-04-24T23:13:29.612Z,5.10
2023-04-24T23:15:56.579Z,5.10
2023-04-24T23:18:23.456Z,5.10
2023-04-24T23:20:50.483Z,5.10
2023-04-24T23:23:17.589Z,5.10
2023-04-24T23:25:44.503Z,5.10
2023-04-24T23:28:11.466Z,5.20
2023-04-24T23:30:38.341Z,5.20
2023-04-24T23:33:05.343Z,5.30
2023-04-24T23:35:32.583Z,5.40
2023-04-24T23:37:59.679Z,5.20
2023-04-24T23:40:27.306Z,5.40
2023-04-24T23:43:06.369Z,5.30
2023-04-24T23:45:34.786Z,5.30
2023-04-24T23:48:01.850Z,5.20
2023-04-24T23:50:28.838Z,5.20
2023-04-24T23:52:55.736Z,5.30
2023-04-24T23:55:22.832Z,5.10
2023-04-24T23:57:49.744Z,5.10
